createdAt,value
2018-12-07T00:00:18.395Z,533.00
2018-12-07T00:02:46.691Z,283.50
2018-12-07T00:05:14.930Z,328.57
2018-12-07T00:07:43.135Z,380.17
2018-12-07T00:10:11.367Z,525.33
2018-12-07T00:12:39.581Z,418.13
2018-12-07T00:15:08.071Z,357.33
2018-12-07T00:17:36.221Z,232.97
2018-12-07T00:20:07.930Z,284.33
2018-12-07T00:22:36.147Z,279.60
2018-12-07T00:25:05.043Z,260.73
2018-12-07T00:27:33.252Z,259.73
2018-12-07T00:30:01.462Z,235.33
2018-12-07T00:32:29.596Z,161.73
2018-12-07T00:34:57.823Z,156.20
2018-12-07T00:37:26.039Z,140.10
2018-12-07T00:39:54.182Z,162.50
2018-12-07T00:42:22.314Z,168.60
2018-12-07T00:44:50.465Z,199.43
2018-12-07T00:47:18.606Z,174.23
2018-12-07T00:49:46.861Z,154.80
2018-12-07T00:52:14.998Z,165.13
2018-12-07T00:54:43.150Z,145.70
2018-12-07T00:57:11.299Z,128.83
2018-12-07T00:59:39.442Z,125.50
2018-12-07T01:02:07.668Z,118.70
2018-12-07T01:04:35.870Z,145.47
2018-12-07T01:07:04.166Z,258.53
2018-12-07T01:09:32.398Z,146.97
2018-12-07T01:12:00.638Z,962.07
2018-12-07T01:14:28.777Z,796.70
2018-12-07T01:16:57.004Z,799.33
2018-12-07T01:19:25.199Z,1124.27
2018-12-07T01:21:53.330Z,1165.77
2018-12-07T01:24:21.446Z,1594.97
2018-12-07T01:26:49.642Z,827.07
2018-12-07T01:29:17.849Z,1213.97
2018-12-07T01:31:46.047Z,1510.20
2018-12-07T01:34:15.067Z,1407.87
2018-12-07T01:36:43.269Z,1591.77
2018-12-07T01:39:11.512Z,1454.87
2018-12-07T01:41:39.710Z,801.60
2018-12-07T01:44:07.892Z,322.73
2018-12-07T01:46:36.097Z,556.83
2018-12-07T01:49:04.306Z,408.13
2018-12-07T01:51:32.430Z,657.87
2018-12-07T01:54:00.618Z,269.80
2018-12-07T01:56:28.869Z,287.53
2018-12-07T01:58:57.053Z,166.70
2018-12-07T02:01:25.201Z,202.60
2018-12-07T02:03:53.331Z,118.60
2018-12-07T02:06:21.514Z,132.93
2018-12-07T02:08:49.619Z,99.73
2018-12-07T02:11:17.746Z,107.57
2018-12-07T02:13:45.918Z,91.40
2018-12-07T02:16:14.019Z,81.40
2018-12-07T02:18:42.150Z,114.43
2018-12-07T02:21:10.263Z,107.37
2018-12-07T02:23:38.392Z,192.67
2018-12-07T02:26:06.560Z,228.73
2018-12-07T02:28:34.682Z,851.10
2018-12-07T02:31:02.928Z,830.53
2018-12-07T02:33:31.190Z,1000.10
2018-12-07T02:35:59.298Z,828.97
2018-12-07T02:38:27.433Z,1185.20
2018-12-07T02:40:55.607Z,1175.00
2018-12-07T02:43:23.803Z,1177.00
2018-12-07T02:45:52.053Z,1081.33
2018-12-07T02:48:20.171Z,1384.93
2018-12-07T02:50:48.352Z,1132.70
2018-12-07T02:53:16.546Z,1542.40
2018-12-07T02:55:44.721Z,1074.13
2018-12-07T02:58:12.847Z,1086.63
2018-12-07T03:00:41.133Z,866.90
2018-12-07T03:03:09.479Z,1182.17
2018-12-07T03:05:37.731Z,1077.30
2018-12-07T03:08:05.977Z,472.87
2018-12-07T03:10:34.094Z,186.93
2018-12-07T03:13:02.218Z,711.67
2018-12-07T03:15:30.414Z,1032.07
2018-12-07T03:17:58.598Z,962.03
2018-12-07T03:20:26.786Z,1006.67
2018-12-07T03:22:54.983Z,1051.50
2018-12-07T03:25:23.153Z,940.23
2018-12-07T03:27:51.277Z,1414.00
2018-12-07T03:30:19.387Z,1386.63
2018-12-07T03:32:52.035Z,1498.13
2018-12-07T03:35:20.219Z,1745.47
2018-12-07T03:37:48.342Z,1554.67
2018-12-07T03:40:16.539Z,1624.53
2018-12-07T03:42:44.688Z,1361.87
2018-12-07T03:45:12.858Z,1626.90
2018-12-07T03:47:41.043Z,1519.23
2018-12-07T03:50:09.230Z,1405.17
2018-12-07T03:52:37.403Z,804.53
2018-12-07T03:55:05.682Z,1065.10
2018-12-07T03:57:33.863Z,1184.37
2018-12-07T04:00:02.103Z,935.50
2018-12-07T04:02:30.348Z,1141.03
2018-12-07T04:04:58.559Z,1187.63
2018-12-07T04:07:26.734Z,1207.90
2018-12-07T04:09:54.859Z,1169.43
2018-12-07T04:12:23.044Z,1059.87
2018-12-07T04:14:51.267Z,1101.37
2018-12-07T04:17:19.462Z,1293.70
2018-12-07T04:19:47.584Z,1163.77
2018-12-07T04:22:15.696Z,1400.50
2018-12-07T04:24:43.871Z,1281.67
2018-12-07T04:27:12.044Z,960.07
2018-12-07T04:29:40.166Z,904.67
2018-12-07T04:32:08.464Z,746.97
2018-12-07T04:34:37.179Z,1350.13
2018-12-07T04:37:05.364Z,1084.10
2018-12-07T04:39:33.642Z,1232.93
2018-12-07T04:42:01.855Z,1084.63
2018-12-07T04:47:26.348Z,1172.50
2018-12-07T04:49:54.473Z,727.83
2018-12-07T04:52:22.727Z,1077.47
2018-12-07T04:54:50.969Z,592.47
2018-12-07T04:57:19.246Z,482.07
2018-12-07T04:59:47.362Z,549.40
2018-12-07T05:02:15.615Z,643.60
2018-12-07T05:04:43.876Z,680.67
2018-12-07T05:07:12.058Z,383.33
2018-12-07T05:09:40.402Z,528.30
2018-12-07T05:12:08.573Z,495.77
2018-12-07T05:14:36.692Z,523.27
2018-12-07T05:17:04.931Z,578.27
2018-12-07T05:19:33.136Z,616.50
2018-12-07T05:22:01.354Z,600.47
2018-12-07T05:24:29.486Z,641.03
2018-12-07T05:26:57.627Z,948.57
2018-12-07T05:29:25.767Z,1124.47
2018-12-07T05:31:53.929Z,935.53
2018-12-07T05:34:22.063Z,1216.73
2018-12-07T05:36:50.313Z,1336.27
2018-12-07T05:39:18.527Z,1421.50
2018-12-07T05:41:46.751Z,1912.10
2018-12-07T05:44:14.967Z,1429.97
2018-12-07T05:46:43.170Z,1173.23
2018-12-07T05:49:11.378Z,1400.07
2018-12-07T05:51:39.594Z,1211.73
2018-12-07T05:54:07.810Z,1835.80
2018-12-07T05:56:36.010Z,1482.27
2018-12-07T05:59:04.230Z,1243.50
2018-12-07T06:01:33.194Z,1188.67
2018-12-07T06:04:01.383Z,1045.47
2018-12-07T06:06:29.526Z,1126.33
2018-12-07T06:08:57.650Z,698.30
2018-12-07T06:11:25.802Z,872.97
2018-12-07T06:13:53.931Z,656.73
2018-12-07T06:16:22.076Z,686.50
2018-12-07T06:18:50.247Z,444.63
2018-12-07T06:21:18.431Z,774.80
2018-12-07T06:23:46.571Z,633.93
2018-12-07T06:26:14.746Z,157.27
2018-12-07T06:28:42.871Z,156.57
2018-12-07T06:31:11.058Z,173.47
2018-12-07T06:33:39.291Z,144.60
2018-12-07T06:36:07.402Z,201.03
2018-12-07T06:38:35.506Z,704.67
2018-12-07T06:41:03.764Z,624.50
2018-12-07T06:43:31.934Z,586.43
2018-12-07T06:46:00.116Z,858.07
2018-12-07T06:48:28.302Z,614.63
2018-12-07T06:50:56.483Z,647.67
2018-12-07T06:53:24.671Z,689.53
2018-12-07T06:55:52.775Z,1145.43
2018-12-07T06:58:20.966Z,805.37
2018-12-07T07:00:49.151Z,936.60
2018-12-07T07:03:17.260Z,725.50
2018-12-07T07:05:45.510Z,1119.97
2018-12-07T07:08:13.770Z,817.40
2018-12-07T07:10:41.946Z,784.03
2018-12-07T07:13:10.074Z,824.43
2018-12-07T07:15:38.187Z,686.50
2018-12-07T07:18:06.355Z,625.87
2018-12-07T07:20:34.563Z,755.30
2018-12-07T07:23:02.714Z,444.40
2018-12-07T07:25:30.934Z,669.63
2018-12-07T07:27:59.092Z,566.67
2018-12-07T07:30:28.345Z,503.10
2018-12-07T07:32:56.674Z,471.60
2018-12-07T07:35:24.957Z,306.47
2018-12-07T07:37:53.095Z,490.07
2018-12-07T07:40:21.238Z,223.70
2018-12-07T07:42:49.942Z,295.90
2018-12-07T07:45:18.266Z,340.47
2018-12-07T07:47:46.419Z,266.93
2018-12-07T07:50:14.559Z,193.33
2018-12-07T07:52:42.710Z,279.30
2018-12-07T07:55:10.942Z,320.80
2018-12-07T07:57:39.071Z,90.73
2018-12-07T08:00:07.487Z,77.87
2018-12-07T08:02:35.620Z,92.00
2018-12-07T08:05:04.018Z,102.63
2018-12-07T08:07:32.255Z,42.83
2018-12-07T08:10:00.416Z,63.67
2018-12-07T08:12:28.547Z,69.37
2018-12-07T08:14:56.659Z,39.87
2018-12-07T08:17:25.017Z,23.50
2018-12-07T08:19:53.355Z,34.27
2018-12-07T08:22:21.614Z,35.33
2018-12-07T08:24:49.818Z,98.07
2018-12-07T08:27:17.947Z,36.87
2018-12-07T08:29:46.096Z,68.10
2018-12-07T08:32:14.246Z,63.03
2018-12-07T08:34:42.408Z,90.10
2018-12-07T08:37:10.631Z,46.00
2018-12-07T08:39:38.771Z,27.47
2018-12-07T08:42:07.931Z,26.40
2018-12-07T08:44:36.074Z,31.30
2018-12-07T08:47:04.218Z,28.47
2018-12-07T08:49:37.919Z,24.90
2018-12-07T08:52:06.218Z,27.70
2018-12-07T08:54:34.447Z,25.47
2018-12-07T08:57:02.582Z,32.90
2018-12-07T08:59:30.738Z,30.93
2018-12-07T09:01:59.027Z,21.20
2018-12-07T09:04:27.186Z,35.13
2018-12-07T09:06:55.413Z,25.30
2018-12-07T09:09:23.554Z,22.77
2018-12-07T09:11:51.847Z,25.10
2018-12-07T09:14:19.985Z,23.83
2018-12-07T09:16:48.126Z,19.77
2018-12-07T09:19:16.359Z,21.30
2018-12-07T09:21:44.516Z,23.80
2018-12-07T09:24:12.754Z,21.93
2018-12-07T09:26:40.899Z,19.30
2018-12-07T09:29:09.062Z,17.27
2018-12-07T09:31:37.194Z,16.30
2018-12-07T09:34:05.359Z,18.90
2018-12-07T09:36:33.496Z,17.40
2018-12-07T09:39:01.726Z,18.53
2018-12-07T09:41:29.862Z,20.53
2018-12-07T09:43:57.991Z,16.10
2018-12-07T09:46:26.270Z,17.47
2018-12-07T09:48:54.478Z,15.57
2018-12-07T09:51:22.631Z,16.40
2018-12-07T09:53:50.771Z,17.63
2018-12-07T09:56:19.003Z,17.00
2018-12-07T09:58:47.702Z,19.57
2018-12-07T10:01:15.846Z,23.07
2018-12-07T10:03:43.996Z,23.33
2018-12-07T10:06:12.156Z,15.33
2018-12-07T10:08:40.378Z,14.83
2018-12-07T10:11:08.687Z,16.90
2018-12-07T10:13:36.827Z,24.00
2018-12-07T10:16:07.059Z,23.07
2018-12-07T10:18:37.295Z,15.50
2018-12-07T10:21:06.550Z,21.50
2018-12-07T10:23:34.690Z,24.27
2018-12-07T10:26:02.942Z,29.13
2018-12-07T10:28:31.071Z,136.67
2018-12-07T10:30:59.322Z,125.87
2018-12-07T10:33:27.461Z,312.17
2018-12-07T10:35:55.703Z,299.07
2018-12-07T10:38:23.863Z,33.47
2018-12-07T10:40:52.094Z,33.77
2018-12-07T10:43:20.226Z,27.90
2018-12-07T10:45:48.462Z,45.40
2018-12-07T10:48:16.606Z,24.07
2018-12-07T10:50:44.827Z,35.93
2018-12-07T10:53:12.972Z,27.60
2018-12-07T10:55:41.194Z,28.50
2018-12-07T10:58:09.410Z,32.97
2018-12-07T11:00:43.146Z,27.47
2018-12-07T11:03:16.777Z,26.43
2018-12-07T11:05:50.450Z,23.93
2018-12-07T11:08:23.943Z,22.47
2018-12-07T11:10:55.535Z,28.63
2018-12-07T11:13:29.127Z,25.67
2018-12-07T11:16:02.697Z,23.17
2018-12-07T11:18:43.398Z,27.73
2018-12-07T11:21:16.910Z,25.33
2018-12-07T11:23:50.534Z,27.70
2018-12-07T11:26:25.525Z,29.90
2018-12-07T11:28:59.195Z,28.13
2018-12-07T11:31:32.678Z,32.83
2018-12-07T11:34:05.190Z,32.70
2018-12-07T11:36:33.482Z,35.07
2018-12-07T11:39:01.619Z,26.77
2018-12-07T11:41:29.755Z,27.03
2018-12-07T11:43:57.899Z,34.97
2018-12-07T11:46:26.139Z,31.23
2018-12-07T11:48:54.440Z,28.57
2018-12-07T11:51:22.566Z,43.33
2018-12-07T11:53:50.794Z,33.57
2018-12-07T11:56:19.084Z,26.50
2018-12-07T11:58:47.238Z,36.20
2018-12-07T12:01:15.378Z,59.83
2018-12-07T12:03:43.542Z,77.03
2018-12-07T12:06:11.666Z,48.20
2018-12-07T12:08:39.822Z,46.37
2018-12-07T12:11:08.050Z,38.33
2018-12-07T12:13:36.200Z,48.20
2018-12-07T12:16:06.108Z,44.73
2018-12-07T12:18:34.616Z,35.33
2018-12-07T12:21:02.842Z,55.37
2018-12-07T12:23:31.023Z,29.37
2018-12-07T12:25:59.185Z,25.80
2018-12-07T12:28:27.376Z,31.97
2018-12-07T12:30:55.546Z,46.83
2018-12-07T12:33:23.747Z,32.93
2018-12-07T12:35:52.053Z,33.00
2018-12-07T12:38:20.240Z,26.77
2018-12-07T12:40:48.415Z,34.17
2018-12-07T12:43:16.530Z,47.77
2018-12-07T12:45:44.690Z,29.10
2018-12-07T12:48:12.954Z,31.80
2018-12-07T12:50:41.134Z,40.43
2018-12-07T12:53:09.254Z,24.17
2018-12-07T12:55:37.818Z,29.90
2018-12-07T12:58:06.069Z,31.60
2018-12-07T13:00:34.340Z,22.57
2018-12-07T13:03:02.526Z,22.63
2018-12-07T13:05:30.786Z,26.67
2018-12-07T13:07:58.964Z,26.40
2018-12-07T13:10:27.079Z,32.90
2018-12-07T13:12:55.194Z,26.93
2018-12-07T13:15:23.382Z,27.43
2018-12-07T13:17:51.494Z,24.57
2018-12-07T13:20:19.671Z,25.93
2018-12-07T13:22:47.794Z,29.43
2018-12-07T13:25:15.991Z,25.57
2018-12-07T13:27:44.178Z,27.47
2018-12-07T13:30:12.457Z,25.40
2018-12-07T13:32:40.594Z,25.23
2018-12-07T13:35:08.831Z,22.23
2018-12-07T13:37:36.959Z,21.73
2018-12-07T13:40:05.989Z,26.03
2018-12-07T13:42:38.970Z,24.70
2018-12-07T13:45:08.420Z,25.27
2018-12-07T13:47:36.831Z,22.67
2018-12-07T13:50:11.301Z,20.67
2018-12-07T13:52:39.639Z,20.17
2018-12-07T13:55:08.022Z,19.67
2018-12-07T13:57:36.297Z,18.87
2018-12-07T14:00:05.602Z,19.80
2018-12-07T14:02:35.898Z,19.27
2018-12-07T14:05:04.787Z,17.87
2018-12-07T14:07:33.171Z,16.90
2018-12-07T14:10:01.414Z,18.03
2018-12-07T14:12:30.188Z,18.20
2018-12-07T14:14:58.418Z,17.70
2018-12-07T14:17:26.795Z,14.20
2018-12-07T14:19:55.095Z,13.70
2018-12-07T14:22:23.416Z,14.80
2018-12-07T14:24:51.921Z,15.70
2018-12-07T14:27:20.260Z,15.70
2018-12-07T14:29:48.622Z,15.67
2018-12-07T14:32:22.121Z,16.73
2018-12-07T14:34:50.286Z,16.07
2018-12-07T14:37:18.434Z,15.83
2018-12-07T14:39:46.953Z,15.10
2018-12-07T14:42:15.179Z,15.67
2018-12-07T14:44:44.141Z,14.40
2018-12-07T14:47:12.594Z,15.10
2018-12-07T14:49:41.210Z,17.13
2018-12-07T14:52:09.399Z,17.40
2018-12-07T14:54:37.892Z,17.80
2018-12-07T14:57:06.426Z,17.20
2018-12-07T14:59:34.605Z,16.87
2018-12-07T15:02:02.934Z,18.07
2018-12-07T15:04:31.507Z,18.40
2018-12-07T15:06:59.762Z,19.33
2018-12-07T15:09:28.061Z,17.17
2018-12-07T15:11:56.846Z,20.80
2018-12-07T15:14:25.135Z,28.37
2018-12-07T15:16:53.589Z,18.63
2018-12-07T15:19:21.929Z,19.07
2018-12-07T15:21:50.265Z,22.03
2018-12-07T15:24:18.574Z,24.30
2018-12-07T15:26:46.979Z,20.67
2018-12-07T15:29:15.261Z,18.27
2018-12-07T15:31:43.464Z,19.20
2018-12-07T15:34:11.787Z,17.67
2018-12-07T15:36:40.143Z,16.93
2018-12-07T15:39:11.115Z,16.10
2018-12-07T15:41:39.446Z,17.27
2018-12-07T15:44:07.819Z,14.53
2018-12-07T15:46:36.418Z,13.00
2018-12-07T15:49:04.925Z,12.50
2018-12-07T15:51:33.963Z,12.27
2018-12-07T15:54:02.428Z,13.37
2018-12-07T15:56:30.859Z,13.97
2018-12-07T15:58:59.146Z,12.80
2018-12-07T16:04:25.946Z,13.37
2018-12-07T16:06:54.180Z,12.90
2018-12-07T16:09:22.372Z,12.60
2018-12-07T16:11:54.799Z,12.80
2018-12-07T16:14:26.868Z,14.00
2018-12-07T16:19:57.575Z,12.77
2018-12-07T16:22:29.799Z,14.93
2018-12-07T16:25:02.047Z,14.53
2018-12-07T16:30:19.260Z,13.40
2018-12-07T16:32:51.158Z,13.77
2018-12-07T16:35:36.525Z,12.63
2018-12-07T16:38:06.612Z,12.63
2018-12-07T16:40:38.688Z,14.23
2018-12-07T16:43:08.718Z,13.87
2018-12-07T16:45:40.473Z,12.30
2018-12-07T16:48:16.051Z,13.60
2018-12-07T16:50:46.216Z,13.00
2018-12-07T16:53:22.094Z,12.07
2018-12-07T16:55:52.162Z,12.50
2018-12-07T16:58:24.446Z,13.27
2018-12-07T17:03:51.882Z,11.93
2018-12-07T17:06:23.723Z,10.53
2018-12-07T17:08:58.330Z,10.00
2018-12-07T17:11:32.403Z,10.83
2018-12-07T17:14:10.384Z,8.30
2018-12-07T17:16:38.715Z,8.17
2018-12-07T17:19:16.741Z,9.10
2018-12-07T17:21:46.268Z,8.37
2018-12-07T17:24:18.066Z,8.90
2018-12-07T17:29:43.069Z,7.93
2018-12-07T17:32:15.101Z,6.20
2018-12-07T17:34:51.640Z,5.87
2018-12-07T17:37:28.211Z,4.80
2018-12-07T17:39:56.556Z,3.67
2018-12-07T17:42:31.323Z,3.80
2018-12-07T17:45:05.760Z,3.33
2018-12-07T17:47:37.909Z,3.83
2018-12-07T17:50:07.397Z,3.80
2018-12-07T17:52:54.296Z,3.10
2018-12-07T17:58:21.489Z,3.50
2018-12-07T18:03:54.728Z,3.47
2018-12-07T18:09:21.728Z,2.70
2018-12-07T18:15:02.316Z,2.03
2018-12-07T18:17:46.815Z,2.00
2018-12-07T18:20:16.532Z,2.23
2018-12-07T18:22:44.768Z,2.00
2018-12-07T18:25:14.877Z,2.37
2018-12-07T18:27:46.310Z,3.43
2018-12-07T18:30:14.555Z,2.53
2018-12-07T18:32:46.853Z,3.20
2018-12-07T18:38:22.037Z,3.80
2018-12-07T18:40:50.746Z,4.60
2018-12-07T18:43:28.549Z,4.47
2018-12-07T18:46:09.819Z,4.63
2018-12-07T18:48:41.823Z,4.70
2018-12-07T18:51:11.292Z,5.37
2018-12-07T18:53:49.989Z,5.30
2018-12-07T18:56:26.133Z,5.53
2018-12-07T18:59:07.494Z,6.23
2018-12-07T19:04:51.107Z,6.10
2018-12-07T19:07:25.310Z,5.90
2018-12-07T19:09:56.557Z,5.80
2018-12-07T19:12:27.505Z,5.50
2018-12-07T19:14:59.557Z,4.63
2018-12-07T19:17:36.334Z,4.87
2018-12-07T19:20:22.967Z,4.10
2018-12-07T19:22:57.502Z,5.00
2018-12-07T19:25:26.829Z,5.07
2018-12-07T19:27:58.454Z,5.40
2018-12-07T19:30:30.448Z,4.73
2018-12-07T19:33:04.818Z,4.90
2018-12-07T19:35:38.634Z,4.13
2018-12-07T19:40:48.623Z,5.20
2018-12-07T19:43:20.419Z,5.47
2018-12-07T19:49:00.468Z,5.13
2018-12-07T19:51:34.429Z,5.63
2018-12-07T19:54:05.849Z,4.53
2018-12-07T19:56:40.567Z,4.80
2018-12-07T19:59:11.923Z,4.93
2018-12-07T20:01:43.683Z,4.33
2018-12-07T20:07:13.656Z,3.67
2018-12-07T20:09:52.697Z,3.40
2018-12-07T20:12:30.382Z,3.30
2018-12-07T20:20:15.151Z,2.87
2018-12-07T20:22:46.459Z,3.37
2018-12-07T20:25:17.472Z,2.60
2018-12-07T20:27:50.929Z,2.30
2018-12-07T20:30:20.518Z,2.63
2018-12-07T20:32:48.761Z,2.60
2018-12-07T20:38:17.082Z,1.80
2018-12-07T20:40:45.443Z,2.30
2018-12-07T20:43:13.755Z,1.87
2018-12-07T20:45:42.273Z,2.80
2018-12-07T20:48:10.850Z,2.87
2018-12-07T20:50:39.275Z,4.00
2018-12-07T20:53:07.789Z,3.80
2018-12-07T20:55:36.138Z,4.53
2018-12-07T20:58:04.459Z,5.53
2018-12-07T21:00:32.563Z,5.83
2018-12-07T21:03:00.970Z,5.07
2018-12-07T21:06:42.735Z,5.60
2018-12-07T21:09:23.827Z,4.00
2018-12-07T21:11:57.979Z,3.43
2018-12-07T21:14:33.859Z,2.27
2018-12-07T21:17:42.556Z,1.80
2018-12-07T21:20:18.727Z,1.37
2018-12-07T21:22:47.146Z,1.97
2018-12-07T21:25:15.421Z,2.00
2018-12-07T21:27:44.176Z,1.63
2018-12-07T21:31:15.835Z,1.63
2018-12-07T21:34:56.980Z,1.77
2018-12-07T21:37:25.107Z,1.73
2018-12-07T21:40:08.901Z,2.13
2018-12-07T21:42:37.432Z,3.77
2018-12-07T21:45:06.322Z,3.67
2018-12-07T21:48:43.691Z,3.03
2018-12-07T21:52:04.650Z,3.00
2018-12-07T21:54:33.151Z,3.00
2018-12-07T21:57:01.344Z,3.10
2018-12-07T21:59:29.873Z,2.77
2018-12-07T22:01:58.299Z,6.30
2018-12-07T22:04:26.535Z,2.83
2018-12-07T22:06:55.196Z,2.53
2018-12-07T22:09:23.612Z,3.80
2018-12-07T22:11:52.123Z,3.60
2018-12-07T22:14:20.769Z,7.50
2018-12-07T22:16:49.036Z,4.40
2018-12-07T22:19:17.352Z,6.30
2018-12-07T22:21:46.818Z,4.40
2018-12-07T22:24:15.007Z,4.90
2018-12-07T22:26:43.259Z,5.33
2018-12-07T22:29:11.465Z,5.37
2018-12-07T22:31:39.846Z,5.90
2018-12-07T22:34:08.073Z,5.93
2018-12-07T22:36:36.398Z,7.27
2018-12-07T22:39:07.913Z,7.63
2018-12-07T22:41:37.055Z,7.43
2018-12-07T22:44:06.553Z,5.90
2018-12-07T22:46:34.777Z,13.37
2018-12-07T22:49:03.275Z,11.80
2018-12-07T22:51:34.647Z,9.57
2018-12-07T22:54:03.522Z,8.50
2018-12-07T22:56:31.866Z,9.57
2018-12-07T22:59:00.094Z,13.10
2018-12-07T23:01:32.136Z,13.93
2018-12-07T23:04:00.409Z,9.63
2018-12-07T23:06:28.775Z,13.90
2018-12-07T23:08:58.074Z,7.70
2018-12-07T23:11:26.371Z,11.93
2018-12-07T23:13:54.823Z,7.50
2018-12-07T23:16:23.056Z,8.73
2018-12-07T23:18:51.256Z,9.30
2018-12-07T23:21:19.486Z,10.30
2018-12-07T23:23:48.783Z,12.37
2018-12-07T23:26:19.126Z,11.57
2018-12-07T23:28:49.397Z,13.07
2018-12-07T23:31:17.538Z,7.83
2018-12-07T23:33:45.825Z,6.70
2018-12-07T23:36:15.157Z,8.23
2018-12-07T23:38:44.398Z,11.20
2018-12-07T23:41:12.559Z,9.03
2018-12-07T23:43:41.766Z,11.43
2018-12-07T23:46:09.995Z,12.40
2018-12-07T23:48:38.292Z,8.27
2018-12-07T23:51:06.521Z,10.73
2018-12-07T23:53:34.799Z,11.40
2018-12-07T23:56:02.941Z,12.73
2018-12-07T23:58:31.211Z,12.43
